createdAt,value
2022-08-22T00:01:06.093Z,17.09
2022-08-22T00:02:43.621Z,18.21
2022-08-22T00:03:07.040Z,17.16
2022-08-22T00:03:07.586Z,17.34
2022-08-22T00:03:59.399Z,17.05
2022-08-22T00:06:44.410Z,17.09
2022-08-22T00:09:33.409Z,17.13
2022-08-22T00:12:12.342Z,16.80
2022-08-22T00:14:48.717Z,17.10
2022-08-22T00:17:41.183Z,17.07
2022-08-22T00:20:33.311Z,16.62
2022-08-22T00:23:18.270Z,16.94
2022-08-22T00:25:51.566Z,17.12
2022-08-22T00:28:21.488Z,17.12
2022-08-22T00:31:07.631Z,17.15
2022-08-22T00:34:00.577Z,17.26
2022-08-22T00:36:39.500Z,17.23
2022-08-22T00:39:43.893Z,16.94
2022-08-22T00:42:32.699Z,17.17
2022-08-22T00:45:08.721Z,17.17
2022-08-22T00:47:36.525Z,17.03
2022-08-22T00:50:38.442Z,16.92
2022-08-22T00:53:39.603Z,16.95
2022-08-22T00:56:12.588Z,16.98
2022-08-22T00:58:52.087Z,17.01
2022-08-22T01:01:26.783Z,17.09
2022-08-22T01:04:21.237Z,16.73
2022-08-22T01:07:05.781Z,16.80
2022-08-22T01:10:01.835Z,16.51
2022-08-22T01:12:46.078Z,16.98
2022-08-22T01:15:22.992Z,16.97
2022-08-22T01:18:27.241Z,16.96
2022-08-22T01:21:24.176Z,16.99
2022-08-22T01:23:57.731Z,16.93
2022-08-22T01:26:44.729Z,16.94
2022-08-22T01:29:50.632Z,16.96
2022-08-22T01:32:39.595Z,16.97
2022-08-22T01:35:26.180Z,16.91
2022-08-22T01:38:37.495Z,16.92
2022-08-22T01:41:13.550Z,16.92
2022-08-22T01:44:08.443Z,16.94
2022-08-22T01:46:53.979Z,16.94
2022-08-22T01:49:44.659Z,16.91
2022-08-22T01:52:32.999Z,16.59
2022-08-22T01:55:32.347Z,16.89
2022-08-22T01:58:24.670Z,16.65
2022-08-22T02:01:12.781Z,16.86
2022-08-22T02:04:05.626Z,16.86
2022-08-22T02:07:03.600Z,16.83
2022-08-22T02:09:44.183Z,16.82
2022-08-22T02:12:35.353Z,16.78
2022-08-22T02:15:06.862Z,16.79
2022-08-22T02:17:51.621Z,16.58
2022-08-22T02:20:29.723Z,16.53
2022-08-22T02:23:24.711Z,16.43
2022-08-22T02:26:02.210Z,16.65
2022-08-22T02:28:57.059Z,16.71
2022-08-22T02:31:42.988Z,16.66
2022-08-22T02:34:33.461Z,16.68
2022-08-22T02:37:23.234Z,16.53
2022-08-22T02:40:02.960Z,16.71
2022-08-22T02:42:49.375Z,16.69
2022-08-22T02:45:28.364Z,16.71
2022-08-22T02:48:20.106Z,16.70
2022-08-22T02:50:54.684Z,16.72
2022-08-22T02:53:40.007Z,16.74
2022-08-22T02:56:14.638Z,16.59
2022-08-22T02:58:54.147Z,16.61
2022-08-22T03:01:32.391Z,16.76
2022-08-22T03:04:23.741Z,16.78
2022-08-22T03:07:26.051Z,16.78
2022-08-22T03:10:20.574Z,16.58
2022-08-22T03:13:12.379Z,16.79
2022-08-22T03:15:49.582Z,16.80
2022-08-22T03:18:47.625Z,16.80
2022-08-22T03:21:24.660Z,16.80
2022-08-22T03:24:00.966Z,16.81
2022-08-22T03:26:30.386Z,16.79
2022-08-22T03:29:06.393Z,16.41
2022-08-22T03:31:33.744Z,16.58
2022-08-22T03:34:30.112Z,16.82
2022-08-22T03:37:21.587Z,16.59
2022-08-22T03:39:51.831Z,16.77
2022-08-22T03:42:55.841Z,16.83
2022-08-22T03:45:44.388Z,16.83
2022-08-22T03:48:42.247Z,16.77
2022-08-22T03:51:41.502Z,16.78
2022-08-22T03:54:20.616Z,16.75
2022-08-22T03:57:17.703Z,16.74
2022-08-22T04:03:17.227Z,16.75
2022-08-22T04:05:50.910Z,16.67
2022-08-22T04:08:44.009Z,16.64
2022-08-22T04:11:15.855Z,16.61
2022-08-22T04:13:54.200Z,16.61
2022-08-22T04:16:58.971Z,16.32
2022-08-22T04:19:44.379Z,16.61
2022-08-22T04:22:15.859Z,16.63
2022-08-22T04:25:11.063Z,16.55
2022-08-22T04:27:53.283Z,16.53
2022-08-22T04:30:26.169Z,16.41
2022-08-22T04:33:01.864Z,15.89
2022-08-22T04:35:37.762Z,16.54
2022-08-22T04:38:12.822Z,16.54
2022-08-22T04:40:55.632Z,16.55
2022-08-22T04:43:33.095Z,16.47
2022-08-22T04:46:14.854Z,16.02
2022-08-22T04:48:50.094Z,16.04
2022-08-22T04:51:26.656Z,16.30
2022-08-22T04:54:31.172Z,16.70
2022-08-22T04:57:16.123Z,16.57
2022-08-22T04:59:44.195Z,16.46
2022-08-22T05:02:22.611Z,16.71
2022-08-22T05:05:01.850Z,16.86
2022-08-22T05:07:44.455Z,16.48
2022-08-22T05:10:25.914Z,16.94
2022-08-22T05:13:02.751Z,16.99
2022-08-22T05:15:38.671Z,16.73
2022-08-22T05:18:16.582Z,17.06
2022-08-22T05:20:49.282Z,17.20
2022-08-22T05:23:26.890Z,17.19
2022-08-22T05:25:59.423Z,17.16
2022-08-22T05:28:44.421Z,17.34
2022-08-22T05:31:18.945Z,17.10
2022-08-22T05:33:59.351Z,17.12
2022-08-22T05:36:30.799Z,17.31
2022-08-22T05:39:03.309Z,17.30
2022-08-22T05:41:37.187Z,17.74
2022-08-22T05:44:08.188Z,17.42
2022-08-22T05:46:44.480Z,17.39
2022-08-22T05:49:37.342Z,17.93
2022-08-22T05:52:32.022Z,18.01
2022-08-22T05:55:15.189Z,18.00
2022-08-22T05:57:47.736Z,18.15
2022-08-22T06:00:21.713Z,18.00
2022-08-22T06:03:39.702Z,18.22
2022-08-22T06:06:15.333Z,18.14
2022-08-22T06:08:51.745Z,18.04
2022-08-22T06:11:38.621Z,18.12
2022-08-22T06:15:11.888Z,18.35
2022-08-22T06:17:51.630Z,17.71
2022-08-22T06:20:25.949Z,17.80
2022-08-22T06:23:03.250Z,18.34
2022-08-22T06:25:37.708Z,18.51
2022-08-22T06:28:09.317Z,18.41
2022-08-22T06:30:44.231Z,18.55
2022-08-22T06:33:16.483Z,18.57
2022-08-22T06:36:08.288Z,18.57
2022-08-22T06:39:03.384Z,18.72
2022-08-22T06:41:34.317Z,18.23
2022-08-22T06:44:08.720Z,18.21
2022-08-22T06:46:38.633Z,18.92
2022-08-22T06:49:07.982Z,18.50
2022-08-22T06:51:38.526Z,19.15
2022-08-22T06:54:11.645Z,19.07
2022-08-22T06:56:44.475Z,19.16
2022-08-22T06:59:18.532Z,19.38
2022-08-22T07:01:51.334Z,19.62
2022-08-22T07:04:26.531Z,19.54
2022-08-22T07:06:57.203Z,19.83
2022-08-22T07:09:29.525Z,19.64
2022-08-22T07:12:01.152Z,20.03
2022-08-22T07:14:43.146Z,20.07
2022-08-22T07:17:23.015Z,20.04
2022-08-22T07:20:05.824Z,20.37
2022-08-22T07:22:35.825Z,20.38
2022-08-22T07:25:09.401Z,20.51
2022-08-22T07:28:19.881Z,20.64
2022-08-22T07:30:58.355Z,20.71
2022-08-22T07:33:53.542Z,20.77
2022-08-22T07:36:36.832Z,20.81
2022-08-22T07:39:28.309Z,20.84
2022-08-22T07:42:07.226Z,20.65
2022-08-22T07:45:03.654Z,20.96
2022-08-22T07:47:49.884Z,20.98
2022-08-22T07:50:28.403Z,20.95
2022-08-22T07:53:04.586Z,21.06
2022-08-22T07:55:32.297Z,20.97
2022-08-22T07:58:04.937Z,20.67
2022-08-22T08:00:33.007Z,20.66
2022-08-22T08:03:07.455Z,21.11
2022-08-22T08:05:37.559Z,20.99
2022-08-22T08:08:12.325Z,21.12
2022-08-22T08:10:43.158Z,21.05
2022-08-22T08:13:22.332Z,20.99
2022-08-22T08:15:50.870Z,21.02
2022-08-22T08:18:26.008Z,20.89
2022-08-22T08:20:58.182Z,21.01
2022-08-22T08:23:31.619Z,20.94
2022-08-22T08:25:58.906Z,21.09
2022-08-22T08:28:36.529Z,20.91
2022-08-22T08:31:27.124Z,21.07
2022-08-22T08:34:02.145Z,20.97
2022-08-22T08:37:05.536Z,20.96
2022-08-22T08:39:44.987Z,21.13
2022-08-22T08:42:19.924Z,21.15
2022-08-22T08:45:01.604Z,21.26
2022-08-22T08:48:16.587Z,21.23
2022-08-22T08:50:57.198Z,21.27
2022-08-22T08:53:58.502Z,21.16
2022-08-22T08:56:38.552Z,21.26
2022-08-22T08:59:36.223Z,21.27
2022-08-22T09:02:34.877Z,21.28
2022-08-22T09:05:41.746Z,21.31
2022-08-22T09:08:18.453Z,21.30
2022-08-22T09:11:16.460Z,21.27
2022-08-22T09:14:11.250Z,21.07
2022-08-22T09:17:08.849Z,21.32
2022-08-22T09:19:57.666Z,21.30
2022-08-22T09:23:10.997Z,21.19
2022-08-22T09:25:44.033Z,21.23
2022-08-22T09:28:14.494Z,21.24
2022-08-22T09:31:16.609Z,21.32
2022-08-22T09:33:59.169Z,21.31
2022-08-22T09:36:53.054Z,21.33
2022-08-22T09:39:33.495Z,21.22
2022-08-22T09:42:02.824Z,21.36
2022-08-22T09:44:54.161Z,21.34
2022-08-22T09:47:39.248Z,21.34
2022-08-22T09:50:18.213Z,21.34
2022-08-22T09:53:31.703Z,21.16
2022-08-22T09:56:20.172Z,21.23
2022-08-22T09:59:03.452Z,21.32
2022-08-22T10:01:51.877Z,21.38
2022-08-22T10:04:42.877Z,21.41
2022-08-22T10:07:48.091Z,21.40
2022-08-22T10:10:26.192Z,21.40
2022-08-22T10:13:04.164Z,21.41
2022-08-22T10:15:55.566Z,21.39
2022-08-22T10:18:35.577Z,21.40
2022-08-22T10:21:15.721Z,21.38
2022-08-22T10:23:54.778Z,21.43
2022-08-22T10:26:29.367Z,21.46
2022-08-22T10:29:03.070Z,21.33
2022-08-22T10:31:59.266Z,21.24
2022-08-22T10:34:45.881Z,21.02
2022-08-22T10:37:31.409Z,20.76
2022-08-22T10:40:08.609Z,21.12
2022-08-22T10:42:53.666Z,20.50
2022-08-22T10:45:36.345Z,21.18
2022-08-22T10:48:09.500Z,21.08
2022-08-22T10:50:48.044Z,20.86
2022-08-22T10:53:40.356Z,20.87
2022-08-22T10:56:17.140Z,20.69
2022-08-22T10:58:55.077Z,20.75
2022-08-22T11:01:38.075Z,20.56
2022-08-22T11:04:17.786Z,20.61
2022-08-22T11:07:03.408Z,20.64
2022-08-22T11:09:42.807Z,20.55
2022-08-22T11:12:35.161Z,20.65
2022-08-22T11:15:08.743Z,20.58
2022-08-22T11:18:03.572Z,20.34
2022-08-22T11:20:49.144Z,20.22
2022-08-22T11:23:45.308Z,20.30
2022-08-22T11:26:33.610Z,19.81
2022-08-22T11:29:13.650Z,20.31
2022-08-22T11:32:11.187Z,20.11
2022-08-22T11:34:44.811Z,19.95
2022-08-22T11:37:23.895Z,20.05
2022-08-22T11:40:23.571Z,20.01
2022-08-22T11:43:19.351Z,20.03
2022-08-22T11:45:51.821Z,19.90
2022-08-22T11:48:30.641Z,19.94
2022-08-22T11:51:28.013Z,19.56
2022-08-22T11:54:31.045Z,19.77
2022-08-22T11:57:34.339Z,19.65
2022-08-22T12:00:29.225Z,19.69
2022-08-22T12:03:24.013Z,19.55
2022-08-22T12:05:51.620Z,19.52
2022-08-22T12:08:43.560Z,19.52
2022-08-22T12:11:50.044Z,19.36
2022-08-22T12:14:31.640Z,19.07
2022-08-22T12:17:26.274Z,19.31
2022-08-22T12:32:59.153Z,18.41
2022-08-22T12:35:41.467Z,18.94
2022-08-22T12:38:37.966Z,18.80
2022-08-22T12:41:14.609Z,18.73
2022-08-22T12:44:20.424Z,18.59
2022-08-22T12:47:09.669Z,18.73
2022-08-22T12:49:53.461Z,18.48
2022-08-22T12:52:48.993Z,18.61
2022-08-22T12:55:58.977Z,18.53
2022-08-22T12:58:51.084Z,18.49
2022-08-22T13:01:20.044Z,18.33
2022-08-22T13:04:00.290Z,18.25
2022-08-22T13:06:37.916Z,18.50
2022-08-22T13:09:29.044Z,18.49
2022-08-22T13:12:22.040Z,18.34
2022-08-22T13:15:11.969Z,18.24
2022-08-22T13:17:44.703Z,18.08
2022-08-22T13:20:22.598Z,18.14
2022-08-22T13:26:34.059Z,18.43
2022-08-22T13:29:25.754Z,18.41
2022-08-22T13:32:02.202Z,18.47
2022-08-22T13:34:48.413Z,18.60
2022-08-22T13:37:24.826Z,18.71
2022-08-22T13:39:58.900Z,18.39
2022-08-22T13:42:31.311Z,18.51
2022-08-22T13:45:05.156Z,18.40
2022-08-22T13:47:39.460Z,18.37
2022-08-22T13:50:19.359Z,18.45
2022-08-22T13:53:11.467Z,18.37
2022-08-22T13:55:55.959Z,18.51
2022-08-22T13:58:39.790Z,18.58
2022-08-22T14:01:25.403Z,18.43
2022-08-22T14:04:05.760Z,18.65
2022-08-22T14:07:02.069Z,18.77
2022-08-22T14:10:18.394Z,18.46
2022-08-22T14:12:55.996Z,18.86
2022-08-22T14:15:45.396Z,18.99
2022-08-22T14:18:30.353Z,19.11
2022-08-22T14:21:17.525Z,19.06
2022-08-22T14:23:46.257Z,18.97
2022-08-22T14:26:50.516Z,19.12
2022-08-22T14:29:20.649Z,19.19
2022-08-22T14:32:04.623Z,19.06
2022-08-22T14:34:42.634Z,19.23
2022-08-22T14:37:30.555Z,19.33
2022-08-22T14:40:22.565Z,19.37
2022-08-22T14:42:58.883Z,19.28
2022-08-22T14:45:35.247Z,19.45
2022-08-22T14:48:30.390Z,19.51
2022-08-22T14:51:04.130Z,19.56
2022-08-22T14:53:38.631Z,19.31
2022-08-22T14:56:08.822Z,19.68
2022-08-22T14:58:47.854Z,19.62
2022-08-22T15:01:19.296Z,19.56
2022-08-22T15:04:11.455Z,19.39
2022-08-22T15:06:48.253Z,19.66
2022-08-22T15:09:41.639Z,19.70
2022-08-22T15:12:26.476Z,19.79
2022-08-22T15:14:58.448Z,20.02
2022-08-22T15:17:54.931Z,20.04
2022-08-22T15:20:35.644Z,20.12
2022-08-22T15:23:15.925Z,20.13
2022-08-22T15:25:47.041Z,20.18
2022-08-22T15:28:17.228Z,20.22
2022-08-22T15:30:54.197Z,20.24
2022-08-22T15:33:21.425Z,20.29
2022-08-22T15:35:52.734Z,20.20
2022-08-22T15:38:32.482Z,20.35
2022-08-22T15:41:23.827Z,20.38
2022-08-22T15:44:15.118Z,20.41
2022-08-22T15:47:11.757Z,20.38
2022-08-22T15:50:05.503Z,20.19
2022-08-22T15:53:06.830Z,20.40
2022-08-22T15:55:35.608Z,20.26
2022-08-22T15:58:22.537Z,20.27
2022-08-22T16:01:19.968Z,20.42
2022-08-22T16:03:54.329Z,20.36
2022-08-22T16:06:40.310Z,20.25
2022-08-22T16:09:30.437Z,20.04
2022-08-22T16:12:05.067Z,20.12
2022-08-22T16:14:35.490Z,20.24
2022-08-22T16:17:27.842Z,20.15
2022-08-22T16:20:15.811Z,20.24
2022-08-22T16:22:59.099Z,20.23
2022-08-22T16:25:45.075Z,19.98
2022-08-22T16:28:54.347Z,20.05
2022-08-22T16:31:32.070Z,20.09
2022-08-22T16:34:22.432Z,18.98
2022-08-22T16:37:09.120Z,19.99
2022-08-22T16:39:42.106Z,19.94
2022-08-22T16:42:24.849Z,19.93
2022-08-22T16:45:05.493Z,19.92
2022-08-22T16:47:32.971Z,19.94
2022-08-22T16:50:23.011Z,19.90
2022-08-22T16:53:19.155Z,19.83
2022-08-22T16:55:55.524Z,19.87
2022-08-22T16:58:49.899Z,19.56
2022-08-22T17:01:42.109Z,19.85
2022-08-22T17:04:22.111Z,19.51
2022-08-22T17:07:07.754Z,19.79
2022-08-22T17:09:41.397Z,19.84
2022-08-22T17:12:52.407Z,19.50
2022-08-22T17:15:41.306Z,19.53
2022-08-22T17:18:12.219Z,19.44
2022-08-22T17:21:04.633Z,19.47
2022-08-22T17:23:53.972Z,19.41
2022-08-22T17:26:21.103Z,19.46
2022-08-22T17:29:10.970Z,19.38
2022-08-22T17:32:00.125Z,19.34
2022-08-22T17:34:59.722Z,19.27
2022-08-22T17:37:42.589Z,19.21
2022-08-22T17:40:45.783Z,19.02
2022-08-22T17:43:33.464Z,18.49
2022-08-22T17:46:36.634Z,18.82
2022-08-22T17:49:22.914Z,18.65
2022-08-22T17:51:59.936Z,18.70
2022-08-22T17:54:37.639Z,18.71
2022-08-22T17:57:14.210Z,18.69
2022-08-22T17:59:52.672Z,18.64
2022-08-22T18:02:27.849Z,18.21
2022-08-22T18:08:37.584Z,18.53
2022-08-22T18:11:45.699Z,18.52
2022-08-22T18:14:30.023Z,18.58
2022-08-22T18:16:59.445Z,18.38
2022-08-22T18:19:46.636Z,18.49
2022-08-22T18:22:27.259Z,18.26
2022-08-22T18:24:57.131Z,18.56
2022-08-22T18:27:42.582Z,18.55
2022-08-22T18:30:19.944Z,18.54
2022-08-22T18:33:24.861Z,18.34
2022-08-22T18:36:01.188Z,18.56
2022-08-22T18:38:31.138Z,18.67
2022-08-22T18:41:11.948Z,18.61
2022-08-22T18:43:44.650Z,18.58
2022-08-22T18:46:37.981Z,18.60
2022-08-22T18:49:21.101Z,18.38
2022-08-22T18:52:09.440Z,18.57
2022-08-22T18:54:40.004Z,18.64
2022-08-22T18:57:54.424Z,18.51
2022-08-22T19:00:40.721Z,18.52
2022-08-22T19:03:07.975Z,18.54
2022-08-22T19:06:00.723Z,18.55
2022-08-22T19:08:41.189Z,18.53
2022-08-22T19:11:40.972Z,18.54
2022-08-22T19:14:36.413Z,18.43
2022-08-22T19:17:19.430Z,18.57
2022-08-22T19:20:27.785Z,18.55
2022-08-22T19:23:32.931Z,18.48
2022-08-22T19:26:25.159Z,18.59
2022-08-22T19:29:45.027Z,18.64
2022-08-22T19:32:45.413Z,18.36
2022-08-22T19:35:37.848Z,18.61
2022-08-22T19:38:08.341Z,18.58
2022-08-22T19:40:53.578Z,18.41
2022-08-22T19:43:32.740Z,18.61
2022-08-22T19:46:06.647Z,18.49
2022-08-22T19:48:48.124Z,18.60
2022-08-22T19:51:22.052Z,18.59
2022-08-22T19:54:16.266Z,18.72
2022-08-22T19:57:03.026Z,18.69
2022-08-22T20:00:09.370Z,18.57
2022-08-22T20:02:40.577Z,18.53
2022-08-22T20:05:18.574Z,18.49
2022-08-22T20:08:18.647Z,18.26
2022-08-22T20:11:09.342Z,18.39
2022-08-22T20:13:38.197Z,18.40
2022-08-22T20:16:13.673Z,18.43
2022-08-22T20:19:09.315Z,18.42
2022-08-22T20:21:40.834Z,18.41
2022-08-22T20:24:32.337Z,18.25
2022-08-22T20:27:14.832Z,18.39
2022-08-22T20:30:16.558Z,18.42
2022-08-22T20:32:54.500Z,18.23
2022-08-22T20:35:34.649Z,18.35
2022-08-22T20:38:10.254Z,18.34
2022-08-22T20:41:11.800Z,18.37
2022-08-22T20:43:50.409Z,18.32
2022-08-22T20:46:43.911Z,17.78
2022-08-22T20:49:38.391Z,18.25
2022-08-22T20:52:20.695Z,18.23
2022-08-22T20:55:04.720Z,17.92
2022-08-22T20:57:34.339Z,18.02
2022-08-22T21:00:13.894Z,18.02
2022-08-22T21:02:48.607Z,18.14
2022-08-22T21:05:18.830Z,18.23
2022-08-22T21:07:49.361Z,18.13
2022-08-22T21:10:43.351Z,18.07
2022-08-22T21:13:13.480Z,18.24
2022-08-22T21:15:49.315Z,17.99
2022-08-22T21:18:35.771Z,18.17
2022-08-22T21:21:17.546Z,18.28
2022-08-22T21:23:49.454Z,18.13
2022-08-22T21:26:23.116Z,18.38
2022-08-22T21:29:03.341Z,18.28
2022-08-22T21:31:42.946Z,18.24
2022-08-22T21:34:21.599Z,18.28
2022-08-22T21:36:53.073Z,18.47
2022-08-22T21:39:27.351Z,18.16
2022-08-22T21:42:01.965Z,18.46
2022-08-22T21:44:29.545Z,18.49
2022-08-22T21:47:13.164Z,18.28
2022-08-22T21:50:13.960Z,18.49
2022-08-22T21:52:44.857Z,18.26
2022-08-22T21:55:35.117Z,18.36
2022-08-22T21:58:35.705Z,18.52
2022-08-22T22:01:27.683Z,18.57
2022-08-22T22:03:56.131Z,18.47
2022-08-22T22:06:23.712Z,18.60
2022-08-22T22:08:51.285Z,18.59
2022-08-22T22:11:20.286Z,18.39
2022-08-22T22:13:49.230Z,18.36
2022-08-22T22:16:22.890Z,18.32
2022-08-22T22:18:51.077Z,18.35
2022-08-22T22:21:18.639Z,18.39
2022-08-22T22:23:47.523Z,18.33
2022-08-22T22:26:14.986Z,18.42
2022-08-22T22:28:50.030Z,18.32
2022-08-22T22:31:18.479Z,18.28
2022-08-22T22:33:46.983Z,18.45
2022-08-22T22:36:22.703Z,18.41
2022-08-22T22:38:51.555Z,18.51
2022-08-22T22:41:23.996Z,18.61
2022-08-22T22:43:55.758Z,18.61
2022-08-22T22:46:27.198Z,18.60
2022-08-22T22:48:55.817Z,18.42
2022-08-22T22:51:24.146Z,18.28
2022-08-22T22:53:52.367Z,18.58
2022-08-22T22:56:24.640Z,18.58
2022-08-22T22:59:00.932Z,18.59
2022-08-22T23:02:01.727Z,18.47
2022-08-22T23:04:31.043Z,18.35
2022-08-22T23:06:58.767Z,18.60
2022-08-22T23:09:38.232Z,18.36
2022-08-22T23:12:14.075Z,18.67
2022-08-22T23:14:42.670Z,18.46
2022-08-22T23:17:10.841Z,18.50
2022-08-22T23:19:39.094Z,18.59
2022-08-22T23:22:08.294Z,18.58
2022-08-22T23:24:37.551Z,18.60
2022-08-22T23:27:07.240Z,18.43
2022-08-22T23:29:35.290Z,18.44
2022-08-22T23:32:04.417Z,18.51
2022-08-22T23:34:46.121Z,18.50
2022-08-22T23:37:17.224Z,18.39
2022-08-22T23:39:48.536Z,18.11
2022-08-22T23:42:18.743Z,17.98
2022-08-22T23:44:47.134Z,17.97
2022-08-22T23:47:15.192Z,18.10
2022-08-22T23:49:43.771Z,17.98
2022-08-22T23:52:13.252Z,17.77
2022-08-22T23:54:41.767Z,17.97
2022-08-22T23:57:12.017Z,17.65
2022-08-22T23:59:48.418Z,17.42
